Main page
METAR-TAF:

METAR-TAF

Airports :

Lagos, Nigeria

Murtala Muhammed International Airport

latitude: 06-35N, longitude: 003-20E, elevation: 40 m

Current weather observation

The report was made 36 minutes ago, at 02:00 UTC
Wind 2 kt from variable directions
Temperature 27°C
Humidity 89%
Pressure 1012 hPa
Visibility 10 km or more
Few clouds at a height of 1100 ft

METAR: DNMM 220200Z VRB02KT 9999 FEW011 27/25 Q1012 NOSIG

Time: 03:36 (02:36 UTC)

Forecast

The report was made 4 hours and 46 minutes ago, at 21:50 UTC
Forecast valid from 22 at 00 UTC to 23 at 06 UTC
Wind 2 kt from variable directions
Visibility: 8000 m
Few clouds at a height of 1100 ft
Temporary
from 22 at 05 UTC to 22 at 08 UTC
Visibility: 3000 m
mist
Probability 30%
from 22 at 06 UTC to 22 at 07 UTC
Visibility: 1500 m
haze
Becoming
from 22 at 08 UTC to 22 at 10 UTC
Wind 10 kt from the Southwest
Broken clouds at a height of 1400 ft

TAF: DNMM 212150Z 2200/2306 VRB02KT 8000 FEW011 TEMPO 2205/2208 3000 BR PROB30 2206/2207 1500 HZ BECMG 2208/2210 22010KT BKN014

Weather observations and forecasts of more than 4000 airports (METAR and TAF reports).

The available stations are represented by yellow and red dots on the map.

Hover mouse over dot to see the name of the station.

Then click to see weather observations and forecasts.

To change the map : click on the green buttons with a black cross to zoom in, on the green button with a dash to zoom out, or on the green arrows for adjacent maps.


METAR-TAF: